sensor_id;sensor_type;location;lat;lon;timestamp;P1;durP1;ratioP1;P2;durP2;ratioP2
43319;SDS011;28914;48.722;9.332;2022-11-18T00:03:43;1.00;;;0.80;;
43319;SDS011;28914;48.722;9.332;2022-11-18T00:09:03;1.10;;;0.80;;
43319;SDS011;28914;48.722;9.332;2022-11-18T00:14:23;1.30;;;0.80;;
43319;SDS011;28914;48.722;9.332;2022-11-18T00:19:45;1.20;;;0.80;;
43319;SDS011;28914;48.722;9.332;2022-11-18T00:25:04;2.70;;;1.90;;
43319;SDS011;28914;48.722;9.332;2022-11-18T00:30:24;3.30;;;2.97;;
43319;SDS011;28914;48.722;9.332;2022-11-18T00:35:43;2.03;;;1.70;;
43319;SDS011;28914;48.722;9.332;2022-11-18T00:41:12;2.03;;;1.60;;
43319;SDS011;28914;48.722;9.332;2022-11-18T00:46:33;1.60;;;1.33;;
43319;SDS011;28914;48.722;9.332;2022-11-18T00:51:52;1.30;;;1.20;;
43319;SDS011;28914;48.722;9.332;2022-11-18T00:57:11;1.83;;;0.80;;
43319;SDS011;28914;48.722;9.332;2022-11-18T01:02:30;2.03;;;0.90;;
43319;SDS011;28914;48.722;9.332;2022-11-18T01:07:50;1.60;;;0.80;;
43319;SDS011;28914;48.722;9.332;2022-11-18T01:13:11;1.53;;;0.70;;
43319;SDS011;28914;48.722;9.332;2022-11-18T01:18:38;1.67;;;0.97;;
43319;SDS011;28914;48.722;9.332;2022-11-18T01:23:57;0.90;;;0.60;;
43319;SDS011;28914;48.722;9.332;2022-11-18T01:29:16;1.07;;;0.77;;
43319;SDS011;28914;48.722;9.332;2022-11-18T01:34:35;1.00;;;0.70;;
43319;SDS011;28914;48.722;9.332;2022-11-18T01:39:55;0.90;;;0.67;;
43319;SDS011;28914;48.722;9.332;2022-11-18T01:45:18;0.90;;;0.60;;
43319;SDS011;28914;48.722;9.332;2022-11-18T01:50:51;1.30;;;0.60;;
43319;SDS011;28914;48.722;9.332;2022-11-18T01:56:21;1.70;;;0.63;;
43319;SDS011;28914;48.722;9.332;2022-11-18T02:01:44;0.80;;;0.40;;
43319;SDS011;28914;48.722;9.332;2022-11-18T02:07:04;1.00;;;0.60;;
43319;SDS011;28914;48.722;9.332;2022-11-18T02:12:25;0.90;;;0.70;;
43319;SDS011;28914;48.722;9.332;2022-11-18T02:17:56;0.80;;;0.50;;
43319;SDS011;28914;48.722;9.332;2022-11-18T02:29:16;2.50;;;0.70;;
43319;SDS011;28914;48.722;9.332;2022-11-18T02:34:49;0.97;;;0.57;;
43319;SDS011;28914;48.722;9.332;2022-11-18T02:40:48;1.00;;;0.60;;
43319;SDS011;28914;48.722;9.332;2022-11-18T02:46:03;1.47;;;0.70;;
43319;SDS011;28914;48.722;9.332;2022-11-18T02:51:26;2.53;;;0.60;;
43319;SDS011;28914;48.722;9.332;2022-11-18T02:56:49;1.30;;;0.77;;
43319;SDS011;28914;48.722;9.332;2022-11-18T03:02:16;0.80;;;0.50;;
43319;SDS011;28914;48.722;9.332;2022-11-18T03:07:36;1.13;;;0.70;;
43319;SDS011;28914;48.722;9.332;2022-11-18T03:13:02;0.83;;;0.50;;
43319;SDS011;28914;48.722;9.332;2022-11-18T03:18:31;1.30;;;0.70;;
43319;SDS011;28914;48.722;9.332;2022-11-18T03:24:09;1.30;;;0.60;;
43319;SDS011;28914;48.722;9.332;2022-11-18T03:29:38;1.00;;;0.67;;
43319;SDS011;28914;48.722;9.332;2022-11-18T03:35:13;1.57;;;0.87;;
43319;SDS011;28914;48.722;9.332;2022-11-18T03:40:40;1.50;;;0.73;;
43319;SDS011;28914;48.722;9.332;2022-11-18T03:46:10;1.30;;;0.83;;
43319;SDS011;28914;48.722;9.332;2022-11-18T03:51:45;1.87;;;0.60;;
43319;SDS011;28914;48.722;9.332;2022-11-18T03:57:12;1.40;;;0.60;;
43319;SDS011;28914;48.722;9.332;2022-11-18T04:02:38;0.90;;;0.60;;
43319;SDS011;28914;48.722;9.332;2022-11-18T04:07:58;1.67;;;0.93;;
43319;SDS011;28914;48.722;9.332;2022-11-18T04:18:43;1.83;;;0.87;;
43319;SDS011;28914;48.722;9.332;2022-11-18T04:24:03;0.83;;;0.50;;
43319;SDS011;28914;48.722;9.332;2022-11-18T04:29:22;0.90;;;0.50;;
43319;SDS011;28914;48.722;9.332;2022-11-18T04:34:41;1.27;;;0.40;;
43319;SDS011;28914;48.722;9.332;2022-11-18T04:40:00;5.07;;;0.50;;
43319;SDS011;28914;48.722;9.332;2022-11-18T04:45:20;0.80;;;0.50;;
43319;SDS011;28914;48.722;9.332;2022-11-18T04:50:39;0.90;;;0.50;;
43319;SDS011;28914;48.722;9.332;2022-11-18T04:56:05;1.57;;;0.80;;
43319;SDS011;28914;48.722;9.332;2022-11-18T05:01:25;1.57;;;0.60;;
43319;SDS011;28914;48.722;9.332;2022-11-18T05:06:45;0.97;;;0.50;;
43319;SDS011;28914;48.722;9.332;2022-11-18T05:12:05;1.43;;;0.50;;
43319;SDS011;28914;48.722;9.332;2022-11-18T05:17:46;1.00;;;0.60;;
43319;SDS011;28914;48.722;9.332;2022-11-18T05:23:06;1.40;;;0.70;;
43319;SDS011;28914;48.722;9.332;2022-11-18T05:28:25;2.40;;;0.77;;
43319;SDS011;28914;48.722;9.332;2022-11-18T05:33:44;1.10;;;0.50;;
43319;SDS011;28914;48.722;9.332;2022-11-18T05:39:03;0.90;;;0.60;;
43319;SDS011;28914;48.722;9.332;2022-11-18T05:44:23;1.40;;;0.80;;
43319;SDS011;28914;48.722;9.332;2022-11-18T05:49:42;3.63;;;0.70;;
43319;SDS011;28914;48.722;9.332;2022-11-18T05:55:01;1.60;;;1.00;;
43319;SDS011;28914;48.722;9.332;2022-11-18T06:00:21;1.27;;;0.80;;
43319;SDS011;28914;48.722;9.332;2022-11-18T06:05:40;1.75;;;1.00;;
43319;SDS011;28914;48.722;9.332;2022-11-18T06:11:00;2.07;;;1.00;;
43319;SDS011;28914;48.722;9.332;2022-11-18T06:16:20;1.50;;;0.97;;
43319;SDS011;28914;48.722;9.332;2022-11-18T06:21:44;1.33;;;0.80;;
43319;SDS011;28914;48.722;9.332;2022-11-18T06:27:05;4.47;;;1.27;;
43319;SDS011;28914;48.722;9.332;2022-11-18T06:32:24;1.20;;;0.70;;
43319;SDS011;28914;48.722;9.332;2022-11-18T06:37:43;1.90;;;0.80;;
43319;SDS011;28914;48.722;9.332;2022-11-18T06:43:08;1.87;;;0.93;;
43319;SDS011;28914;48.722;9.332;2022-11-18T06:48:47;1.73;;;1.10;;
43319;SDS011;28914;48.722;9.332;2022-11-18T06:54:06;1.90;;;1.03;;
43319;SDS011;28914;48.722;9.332;2022-11-18T06:59:25;1.43;;;0.83;;
43319;SDS011;28914;48.722;9.332;2022-11-18T07:04:45;1.57;;;1.03;;
43319;SDS011;28914;48.722;9.332;2022-11-18T07:10:04;2.20;;;1.00;;
43319;SDS011;28914;48.722;9.332;2022-11-18T07:15:24;1.90;;;1.80;;
43319;SDS011;28914;48.722;9.332;2022-11-18T07:20:43;1.30;;;1.10;;
43319;SDS011;28914;48.722;9.332;2022-11-18T07:26:02;1.77;;;1.20;;
43319;SDS011;28914;48.722;9.332;2022-11-18T07:31:21;1.50;;;0.90;;
43319;SDS011;28914;48.722;9.332;2022-11-18T07:36:41;1.60;;;0.80;;
43319;SDS011;28914;48.722;9.332;2022-11-18T07:42:00;1.93;;;1.73;;
43319;SDS011;28914;48.722;9.332;2022-11-18T07:47:20;4.23;;;2.37;;
43319;SDS011;28914;48.722;9.332;2022-11-18T07:52:39;2.00;;;1.77;;
43319;SDS011;28914;48.722;9.332;2022-11-18T07:57:58;2.83;;;2.63;;
43319;SDS011;28914;48.722;9.332;2022-11-18T08:03:17;4.67;;;3.40;;
43319;SDS011;28914;48.722;9.332;2022-11-18T08:08:36;3.30;;;1.87;;
43319;SDS011;28914;48.722;9.332;2022-11-18T08:13:56;1.43;;;1.33;;
43319;SDS011;28914;48.722;9.332;2022-11-18T08:19:15;1.20;;;0.97;;
43319;SDS011;28914;48.722;9.332;2022-11-18T08:24:34;2.07;;;0.90;;
43319;SDS011;28914;48.722;9.332;2022-11-18T08:29:53;2.30;;;0.70;;
43319;SDS011;28914;48.722;9.332;2022-11-18T08:35:12;2.23;;;0.80;;
43319;SDS011;28914;48.722;9.332;2022-11-18T08:40:32;1.47;;;0.93;;
43319;SDS011;28914;48.722;9.332;2022-11-18T08:45:51;1.10;;;0.77;;
43319;SDS011;28914;48.722;9.332;2022-11-18T08:51:11;0.90;;;0.70;;
43319;SDS011;28914;48.722;9.332;2022-11-18T08:56:31;1.20;;;0.83;;
43319;SDS011;28914;48.722;9.332;2022-11-18T09:01:50;0.97;;;0.60;;
43319;SDS011;28914;48.722;9.332;2022-11-18T09:07:09;1.23;;;0.73;;
43319;SDS011;28914;48.722;9.332;2022-11-18T09:12:29;2.20;;;1.77;;
43319;SDS011;28914;48.722;9.332;2022-11-18T09:17:48;4.13;;;0.97;;
43319;SDS011;28914;48.722;9.332;2022-11-18T09:23:07;1.30;;;0.90;;
43319;SDS011;28914;48.722;9.332;2022-11-18T09:28:27;2.23;;;0.90;;
43319;SDS011;28914;48.722;9.332;2022-11-18T09:33:46;2.23;;;1.60;;
43319;SDS011;28914;48.722;9.332;2022-11-18T09:39:06;3.53;;;1.40;;
43319;SDS011;28914;48.722;9.332;2022-11-18T09:44:32;3.87;;;1.60;;
43319;SDS011;28914;48.722;9.332;2022-11-18T09:49:58;1.57;;;1.13;;
43319;SDS011;28914;48.722;9.332;2022-11-18T09:55:19;3.70;;;3.07;;
43319;SDS011;28914;48.722;9.332;2022-11-18T10:00:39;2.97;;;1.57;;
43319;SDS011;28914;48.722;9.332;2022-11-18T10:28:22;2.30;;;1.70;;
43319;SDS011;28914;48.722;9.332;2022-11-18T10:33:49;3.30;;;1.10;;
43319;SDS011;28914;48.722;9.332;2022-11-18T10:39:17;1.70;;;1.07;;
43319;SDS011;28914;48.722;9.332;2022-11-18T10:44:38;1.40;;;1.07;;
43319;SDS011;28914;48.722;9.332;2022-11-18T10:49:59;1.53;;;1.07;;
43319;SDS011;28914;48.722;9.332;2022-11-18T10:55:21;1.57;;;1.20;;
43319;SDS011;28914;48.722;9.332;2022-11-18T11:00:42;1.50;;;1.13;;
43319;SDS011;28914;48.722;9.332;2022-11-18T11:06:13;4.20;;;1.77;;
43319;SDS011;28914;48.722;9.332;2022-11-18T11:11:53;2.43;;;1.30;;
43319;SDS011;28914;48.722;9.332;2022-11-18T11:17:18;2.70;;;1.20;;
43319;SDS011;28914;48.722;9.332;2022-11-18T11:22:48;1.43;;;1.00;;
43319;SDS011;28914;48.722;9.332;2022-11-18T11:28:14;0.93;;;0.70;;
43319;SDS011;28914;48.722;9.332;2022-11-18T11:39:46;1.47;;;0.97;;
43319;SDS011;28914;48.722;9.332;2022-11-18T11:51:36;2.07;;;1.43;;
43319;SDS011;28914;48.722;9.332;2022-11-18T11:57:11;2.27;;;1.43;;
43319;SDS011;28914;48.722;9.332;2022-11-18T12:08:13;1.50;;;1.03;;
43319;SDS011;28914;48.722;9.332;2022-11-18T12:19:24;2.23;;;1.00;;
43319;SDS011;28914;48.722;9.332;2022-11-18T12:24:44;1.50;;;0.80;;
43319;SDS011;28914;48.722;9.332;2022-11-18T12:30:03;2.50;;;1.60;;
43319;SDS011;28914;48.722;9.332;2022-11-18T12:35:34;1.23;;;1.00;;
43319;SDS011;28914;48.722;9.332;2022-11-18T12:40:54;1.20;;;0.80;;
43319;SDS011;28914;48.722;9.332;2022-11-18T12:51:44;1.10;;;0.80;;
43319;SDS011;28914;48.722;9.332;2022-11-18T13:02:35;2.40;;;0.93;;
43319;SDS011;28914;48.722;9.332;2022-11-18T13:08:04;1.27;;;0.70;;
43319;SDS011;28914;48.722;9.332;2022-11-18T13:13:31;1.10;;;0.60;;
43319;SDS011;28914;48.722;9.332;2022-11-18T13:18:52;1.33;;;0.93;;
43319;SDS011;28914;48.722;9.332;2022-11-18T13:24:16;1.17;;;0.90;;
43319;SDS011;28914;48.722;9.332;2022-11-18T13:29:44;1.37;;;1.03;;
43319;SDS011;28914;48.722;9.332;2022-11-18T13:35:17;1.10;;;1.00;;
43319;SDS011;28914;48.722;9.332;2022-11-18T13:40:45;1.20;;;0.90;;
43319;SDS011;28914;48.722;9.332;2022-11-18T13:46:21;1.20;;;0.87;;
43319;SDS011;28914;48.722;9.332;2022-11-18T13:51:41;1.30;;;1.00;;
43319;SDS011;28914;48.722;9.332;2022-11-18T13:57:00;1.97;;;1.00;;
43319;SDS011;28914;48.722;9.332;2022-11-18T14:02:19;1.37;;;1.07;;
43319;SDS011;28914;48.722;9.332;2022-11-18T14:07:39;1.47;;;1.10;;
43319;SDS011;28914;48.722;9.332;2022-11-18T14:12:59;3.00;;;1.20;;
43319;SDS011;28914;48.722;9.332;2022-11-18T14:18:25;2.03;;;1.33;;
43319;SDS011;28914;48.722;9.332;2022-11-18T14:23:50;2.87;;;1.50;;
43319;SDS011;28914;48.722;9.332;2022-11-18T14:29:16;1.40;;;1.30;;
43319;SDS011;28914;48.722;9.332;2022-11-18T14:34:40;1.63;;;1.20;;
43319;SDS011;28914;48.722;9.332;2022-11-18T14:40:00;1.53;;;0.80;;
43319;SDS011;28914;48.722;9.332;2022-11-18T14:45:19;4.10;;;1.73;;
43319;SDS011;28914;48.722;9.332;2022-11-18T14:50:38;2.07;;;1.10;;
43319;SDS011;28914;48.722;9.332;2022-11-18T14:55:58;7.87;;;5.80;;
43319;SDS011;28914;48.722;9.332;2022-11-18T15:01:22;7.30;;;5.97;;
43319;SDS011;28914;48.722;9.332;2022-11-18T15:06:47;3.80;;;3.50;;
43319;SDS011;28914;48.722;9.332;2022-11-18T15:12:07;3.27;;;1.77;;
43319;SDS011;28914;48.722;9.332;2022-11-18T15:17:26;1.77;;;1.30;;
43319;SDS011;28914;48.722;9.332;2022-11-18T15:22:45;3.03;;;1.63;;
43319;SDS011;28914;48.722;9.332;2022-11-18T15:28:04;1.97;;;1.10;;
43319;SDS011;28914;48.722;9.332;2022-11-18T15:33:24;2.03;;;1.43;;
43319;SDS011;28914;48.722;9.332;2022-11-18T15:38:43;1.90;;;1.33;;
43319;SDS011;28914;48.722;9.332;2022-11-18T15:44:03;2.07;;;1.57;;
43319;SDS011;28914;48.722;9.332;2022-11-18T15:49:22;3.03;;;1.80;;
43319;SDS011;28914;48.722;9.332;2022-11-18T15:54:41;1.63;;;1.53;;
43319;SDS011;28914;48.722;9.332;2022-11-18T16:00:01;2.23;;;2.03;;
43319;SDS011;28914;48.722;9.332;2022-11-18T16:05:21;3.33;;;2.03;;
43319;SDS011;28914;48.722;9.332;2022-11-18T16:10:40;2.53;;;2.30;;
43319;SDS011;28914;48.722;9.332;2022-11-18T16:16:22;5.83;;;5.20;;
43319;SDS011;28914;48.722;9.332;2022-11-18T16:21:46;8.80;;;8.00;;
43319;SDS011;28914;48.722;9.332;2022-11-18T16:27:07;7.23;;;6.60;;
43319;SDS011;28914;48.722;9.332;2022-11-18T16:32:26;5.27;;;4.80;;
43319;SDS011;28914;48.722;9.332;2022-11-18T16:37:45;4.97;;;4.10;;
43319;SDS011;28914;48.722;9.332;2022-11-18T16:43:05;3.97;;;3.57;;
43319;SDS011;28914;48.722;9.332;2022-11-18T16:48:24;5.40;;;4.90;;
43319;SDS011;28914;48.722;9.332;2022-11-18T16:53:45;5.37;;;4.83;;
43319;SDS011;28914;48.722;9.332;2022-11-18T16:59:12;7.53;;;6.93;;
43319;SDS011;28914;48.722;9.332;2022-11-18T17:04:33;7.53;;;6.83;;
43319;SDS011;28914;48.722;9.332;2022-11-18T17:09:54;7.37;;;6.67;;
43319;SDS011;28914;48.722;9.332;2022-11-18T17:15:13;13.03;;;11.60;;
43319;SDS011;28914;48.722;9.332;2022-11-18T17:20:33;11.70;;;10.60;;
43319;SDS011;28914;48.722;9.332;2022-11-18T17:25:53;10.93;;;9.93;;
43319;SDS011;28914;48.722;9.332;2022-11-18T17:31:13;10.47;;;9.57;;
43319;SDS011;28914;48.722;9.332;2022-11-18T17:36:35;8.30;;;6.80;;
43319;SDS011;28914;48.722;9.332;2022-11-18T17:41:54;5.57;;;4.87;;
43319;SDS011;28914;48.722;9.332;2022-11-18T17:47:31;5.20;;;4.80;;
43319;SDS011;28914;48.722;9.332;2022-11-18T17:52:51;6.70;;;4.50;;
43319;SDS011;28914;48.722;9.332;2022-11-18T17:58:10;5.10;;;4.67;;
43319;SDS011;28914;48.722;9.332;2022-11-18T18:03:29;8.97;;;8.07;;
43319;SDS011;28914;48.722;9.332;2022-11-18T18:08:49;21.33;;;19.23;;
43319;SDS011;28914;48.722;9.332;2022-11-18T18:14:12;14.10;;;11.90;;
43319;SDS011;28914;48.722;9.332;2022-11-18T18:19:32;11.90;;;10.70;;
43319;SDS011;28914;48.722;9.332;2022-11-18T18:24:51;10.00;;;9.10;;
43319;SDS011;28914;48.722;9.332;2022-11-18T18:30:10;12.30;;;11.20;;
43319;SDS011;28914;48.722;9.332;2022-11-18T18:35:30;10.83;;;9.73;;
43319;SDS011;28914;48.722;9.332;2022-11-18T18:40:50;11.47;;;10.37;;
43319;SDS011;28914;48.722;9.332;2022-11-18T18:46:10;14.63;;;13.10;;
43319;SDS011;28914;48.722;9.332;2022-11-18T18:51:47;16.50;;;14.30;;
43319;SDS011;28914;48.722;9.332;2022-11-18T18:57:07;10.10;;;9.00;;
43319;SDS011;28914;48.722;9.332;2022-11-18T19:02:26;10.07;;;8.70;;
43319;SDS011;28914;48.722;9.332;2022-11-18T19:07:45;6.73;;;6.00;;
43319;SDS011;28914;48.722;9.332;2022-11-18T19:13:05;5.33;;;3.87;;
43319;SDS011;28914;48.722;9.332;2022-11-18T19:18:24;4.43;;;3.60;;
43319;SDS011;28914;48.722;9.332;2022-11-18T19:23:43;3.07;;;2.60;;
43319;SDS011;28914;48.722;9.332;2022-11-18T19:29:03;3.83;;;3.20;;
43319;SDS011;28914;48.722;9.332;2022-11-18T19:34:22;4.37;;;2.50;;
43319;SDS011;28914;48.722;9.332;2022-11-18T19:39:41;4.53;;;4.13;;
43319;SDS011;28914;48.722;9.332;2022-11-18T19:45:01;6.53;;;5.93;;
43319;SDS011;28914;48.722;9.332;2022-11-18T19:50:24;5.47;;;4.47;;
43319;SDS011;28914;48.722;9.332;2022-11-18T19:55:51;3.93;;;3.63;;
43319;SDS011;28914;48.722;9.332;2022-11-18T20:01:18;4.50;;;4.10;;
43319;SDS011;28914;48.722;9.332;2022-11-18T20:06:42;6.03;;;3.97;;
43319;SDS011;28914;48.722;9.332;2022-11-18T20:12:03;6.43;;;5.83;;
43319;SDS011;28914;48.722;9.332;2022-11-18T20:17:22;6.97;;;6.23;;
43319;SDS011;28914;48.722;9.332;2022-11-18T20:22:42;7.30;;;4.83;;
43319;SDS011;28914;48.722;9.332;2022-11-18T20:28:01;5.00;;;4.50;;
43319;SDS011;28914;48.722;9.332;2022-11-18T20:33:21;6.07;;;5.57;;
43319;SDS011;28914;48.722;9.332;2022-11-18T20:38:40;10.83;;;9.30;;
43319;SDS011;28914;48.722;9.332;2022-11-18T20:43:59;12.20;;;9.00;;
43319;SDS011;28914;48.722;9.332;2022-11-18T20:49:19;3.70;;;3.30;;
43319;SDS011;28914;48.722;9.332;2022-11-18T20:54:38;5.83;;;3.40;;
43319;SDS011;28914;48.722;9.332;2022-11-18T20:59:57;3.33;;;3.03;;
43319;SDS011;28914;48.722;9.332;2022-11-18T21:05:16;3.10;;;2.30;;
43319;SDS011;28914;48.722;9.332;2022-11-18T21:10:35;4.10;;;3.80;;
43319;SDS011;28914;48.722;9.332;2022-11-18T21:15:55;4.20;;;3.83;;
43319;SDS011;28914;48.722;9.332;2022-11-18T21:21:14;6.70;;;6.10;;
43319;SDS011;28914;48.722;9.332;2022-11-18T21:26:53;4.30;;;3.90;;
43319;SDS011;28914;48.722;9.332;2022-11-18T21:32:12;3.50;;;3.20;;
43319;SDS011;28914;48.722;9.332;2022-11-18T21:37:32;3.17;;;2.43;;
43319;SDS011;28914;48.722;9.332;2022-11-18T21:42:51;3.17;;;2.50;;
43319;SDS011;28914;48.722;9.332;2022-11-18T21:48:10;2.70;;;2.50;;
43319;SDS011;28914;48.722;9.332;2022-11-18T21:53:29;3.20;;;2.63;;
43319;SDS011;28914;48.722;9.332;2022-11-18T21:58:49;5.93;;;4.93;;
43319;SDS011;28914;48.722;9.332;2022-11-18T22:04:09;7.07;;;6.37;;
43319;SDS011;28914;48.722;9.332;2022-11-18T22:09:48;6.80;;;5.47;;
43319;SDS011;28914;48.722;9.332;2022-11-18T22:15:08;5.73;;;5.20;;
43319;SDS011;28914;48.722;9.332;2022-11-18T22:20:28;5.33;;;4.70;;
43319;SDS011;28914;48.722;9.332;2022-11-18T22:25:47;5.43;;;3.83;;
43319;SDS011;28914;48.722;9.332;2022-11-18T22:31:17;3.80;;;3.33;;
43319;SDS011;28914;48.722;9.332;2022-11-18T22:36:40;4.23;;;2.67;;
43319;SDS011;28914;48.722;9.332;2022-11-18T22:41:59;2.30;;;2.07;;
43319;SDS011;28914;48.722;9.332;2022-11-18T22:47:37;4.37;;;3.90;;
43319;SDS011;28914;48.722;9.332;2022-11-18T22:52:57;4.97;;;3.30;;
43319;SDS011;28914;48.722;9.332;2022-11-18T22:58:16;2.87;;;2.53;;
43319;SDS011;28914;48.722;9.332;2022-11-18T23:03:35;2.77;;;2.40;;
43319;SDS011;28914;48.722;9.332;2022-11-18T23:08:54;3.67;;;2.20;;
43319;SDS011;28914;48.722;9.332;2022-11-18T23:14:13;2.50;;;1.87;;
43319;SDS011;28914;48.722;9.332;2022-11-18T23:19:33;2.53;;;2.30;;
43319;SDS011;28914;48.722;9.332;2022-11-18T23:24:54;3.93;;;2.43;;
43319;SDS011;28914;48.722;9.332;2022-11-18T23:30:13;1.97;;;1.73;;
43319;SDS011;28914;48.722;9.332;2022-11-18T23:35:32;2.40;;;2.00;;
43319;SDS011;28914;48.722;9.332;2022-11-18T23:41:02;5.63;;;4.23;;
43319;SDS011;28914;48.722;9.332;2022-11-18T23:46:22;2.67;;;2.43;;
43319;SDS011;28914;48.722;9.332;2022-11-18T23:51:42;2.40;;;2.10;;
43319;SDS011;28914;48.722;9.332;2022-11-18T23:57:02;1.60;;;1.50;;
